Time;durP1;ratioP1;P1;durP2;ratioP2;P2;SDS_P1;SDS_P2;PMS_P1;PMS_P2;Temp;Humidity;BMP_temperature;BMP_pressure;BME280_temperature;BME280_humidity;BME280_pressure;Samples;Min_cycle;Max_cycle;Signal;HPM_P1;HPM_P2
2022/11/22 00:00:40;;;;;;;9.70;5.00;;;;;;;7.61;84.75;99067.66;5070108;28;20111;-92
2022/11/22 00:03:06;;;;;;;9.90;4.47;;;;;;;7.62;84.61;99065.88;5072126;28;20035;-93
2022/11/22 00:05:31;;;;;;;11.07;4.63;;;;;;;7.51;84.79;99055.97;5068928;28;20064;-93
2022/11/22 00:07:56;;;;;;;8.60;4.80;;;;;;;7.55;84.81;99064.53;5069000;28;20028;-94
2022/11/22 00:10:22;;;;;;;10.10;4.72;;;;;;;7.57;85.19;99066.16;5089550;28;20057;-93
2022/11/22 00:12:48;;;;;;;10.32;5.25;;;;;;;7.56;85.12;99053.94;5089314;28;20535;-94
2022/11/22 00:15:13;;;;;;;13.02;4.95;;;;;;;7.58;85.38;99065.19;5083234;28;20063;-93
2022/11/22 00:17:39;;;;;;;13.02;4.80;;;;;;;7.51;85.67;99048.09;5067418;28;20491;-92
2022/11/22 00:20:06;;;;;;;8.35;4.30;;;;;;;7.50;85.16;99054.25;5088678;28;20063;-92
2022/11/22 00:22:31;;;;;;;12.95;5.28;;;;;;;7.51;85.38;99049.88;5072242;28;20020;-93
2022/11/22 00:24:57;;;;;;;9.85;5.20;;;;;;;7.53;85.43;99053.25;5069073;28;20024;-93
2022/11/22 00:27:22;;;;;;;9.52;4.57;;;;;;;7.54;85.27;99068.94;5085729;28;20024;-93
2022/11/22 00:29:47;;;;;;;10.20;4.75;;;;;;;7.47;84.96;99051.81;5088054;28;20532;-94
2022/11/22 00:32:13;;;;;;;10.75;4.85;;;;;;;7.56;85.38;99058.34;5088291;28;20028;-93
2022/11/22 00:34:38;;;;;;;6.65;4.85;;;;;;;7.55;85.23;99059.25;5071916;28;20031;-93
2022/11/22 00:37:03;;;;;;;8.82;4.78;;;;;;;7.59;84.94;99061.63;5067620;28;20032;-93
2022/11/22 00:39:28;;;;;;;8.25;5.03;;;;;;;7.59;85.14;99053.75;5067760;28;20012;-94
2022/11/22 00:41:54;;;;;;;12.05;4.30;;;;;;;7.66;84.84;99063.00;5066289;28;20035;-92
2022/11/22 00:44:19;;;;;;;9.68;4.57;;;;;;;7.61;84.86;99053.69;5068228;28;20109;-93
2022/11/22 00:46:44;;;;;;;14.73;5.95;;;;;;;7.57;84.99;99046.88;5085195;28;20530;-93
2022/11/22 00:49:10;;;;;;;8.15;4.07;;;;;;;7.60;84.85;99055.47;5067049;28;20045;-93
2022/11/22 00:51:35;;;;;;;7.05;4.43;;;;;;;7.51;85.08;99045.47;5070583;28;20028;-93
2022/11/22 00:54:00;;;;;;;5.15;3.85;;;;;;;7.54;85.24;99066.31;5087490;28;20060;-92
2022/11/22 00:56:25;;;;;;;8.10;4.53;;;;;;;7.44;85.23;99056.41;5066826;28;20042;-93
2022/11/22 00:58:51;;;;;;;11.27;4.00;;;;;;;7.39;85.27;99048.75;5065550;28;20035;-92
2022/11/22 01:01:16;;;;;;;10.93;4.03;;;;;;;7.34;84.68;99045.56;5087368;28;20020;-92
2022/11/22 01:03:41;;;;;;;9.15;3.75;;;;;;;7.31;85.19;99045.72;5071571;28;20031;-93
2022/11/22 01:06:07;;;;;;;6.13;3.25;;;;;;;7.24;84.97;99039.97;5081325;28;20072;-92
2022/11/22 01:08:32;;;;;;;12.60;3.70;;;;;;;7.24;85.09;99039.13;5088718;28;20491;-93
2022/11/22 01:10:59;;;;;;;6.00;3.40;;;;;;;7.24;85.02;99050.47;5071480;28;20542;-93
2022/11/22 01:13:26;;;;;;;9.30;4.75;;;;;;;7.24;85.17;99057.50;5085792;28;20051;-92
2022/11/22 01:15:52;;;;;;;7.13;3.15;;;;;;;7.12;84.96;99054.59;5079712;28;20061;-94
2022/11/22 01:18:17;;;;;;;13.68;4.53;;;;;;;7.14;85.11;99063.28;5069293;28;20052;-93
2022/11/22 01:20:43;;;;;;;11.48;3.38;;;;;;;7.06;85.87;99048.84;5087971;28;20035;-92
2022/11/22 01:23:08;;;;;;;6.20;3.20;;;;;;;7.15;85.30;99057.06;5070120;28;20020;-92
2022/11/22 01:25:34;;;;;;;6.75;2.83;;;;;;;7.13;85.65;99065.97;5086503;28;20020;-93
2022/11/22 01:27:59;;;;;;;7.13;2.92;;;;;;;7.16;85.35;99073.69;5065915;28;20032;-93
2022/11/22 01:30:24;;;;;;;7.97;3.00;;;;;;;7.10;85.09;99060.91;5070471;28;20020;-93
2022/11/22 01:32:49;;;;;;;12.15;4.63;;;;;;;7.14;85.15;99070.31;5068584;28;20024;-92
2022/11/22 01:35:15;;;;;;;9.63;3.20;;;;;;;7.07;85.43;99061.91;5065080;28;20031;-93
2022/11/22 01:37:40;;;;;;;9.25;3.28;;;;;;;7.12;85.27;99064.28;5088229;28;20024;-92
2022/11/22 01:40:06;;;;;;;9.38;2.75;;;;;;;7.08;85.25;99071.47;5064245;28;20099;-93
2022/11/22 01:42:44;;;;;;;9.02;3.20;;;;;;;7.12;85.08;99075.63;5070208;28;20036;-92
2022/11/22 01:45:28;;;;;;;9.18;2.83;;;;;;;7.06;85.43;99077.75;5068790;28;20032;-91
2022/11/22 01:48:00;;;;;;;7.88;2.75;;;;;;;7.06;85.10;99073.34;5086971;28;20024;-92
2022/11/22 01:50:27;;;;;;;9.13;3.22;;;;;;;7.05;85.25;99076.91;5072424;28;20041;-93
2022/11/22 01:52:55;;;;;;;11.00;2.58;;;;;;;7.04;84.79;99088.34;5068380;28;20035;-93
2022/11/22 01:55:21;;;;;;;10.98;3.50;;;;;;;7.02;85.13;99079.69;5065273;28;20055;-93
2022/11/22 01:57:47;;;;;;;13.20;3.60;;;;;;;6.98;85.01;99075.53;5069623;28;20450;-93
2022/11/22 02:00:15;;;;;;;13.85;2.90;;;;;;;7.01;84.99;99083.25;5068491;28;20049;-91
2022/11/22 02:02:43;;;;;;;15.10;3.20;;;;;;;6.96;84.86;99084.44;5070511;28;20091;-92
2022/11/22 02:05:12;;;;;;;10.30;2.55;;;;;;;7.08;84.56;99095.13;5063024;28;20102;-93
2022/11/22 02:07:46;;;;;;;12.13;3.03;;;;;;;7.01;84.93;99096.38;5065377;28;20048;-92
2022/11/22 02:10:13;;;;;;;12.35;2.72;;;;;;;6.90;85.00;99090.84;5047564;28;20040;-91
2022/11/22 02:12:39;;;;;;;11.13;2.63;;;;;;;6.99;84.39;99087.72;5070716;28;20040;-93
2022/11/22 02:15:06;;;;;;;10.40;3.40;;;;;;;7.00;84.32;99099.97;5068977;28;20024;-92
2022/11/22 02:17:32;;;;;;;7.72;2.30;;;;;;;7.03;84.56;99094.50;5066475;28;20044;-92
2022/11/22 02:19:57;;;;;;;9.30;3.15;;;;;;;7.02;84.01;99097.22;5071230;28;20020;-92
2022/11/22 02:22:58;;;;;;;12.15;3.70;;;;;;;7.06;83.78;99097.00;5069490;28;20753;-92
2022/11/22 02:25:31;;;;;;;12.75;3.42;;;;;;;7.07;83.56;99106.56;5070637;28;20029;-92
2022/11/22 02:27:57;;;;;;;13.32;2.80;;;;;;;7.04;83.53;99101.50;5071802;28;20032;-92
2022/11/22 02:30:23;;;;;;;11.77;3.00;;;;;;;6.98;83.59;99098.31;5071665;28;20033;-92
2022/11/22 02:32:48;;;;;;;10.20;3.20;;;;;;;6.97;83.71;99102.72;5068509;28;20435;-93
2022/11/22 02:35:20;;;;;;;12.48;2.83;;;;;;;6.94;83.79;99104.66;5071814;28;20067;-92
2022/11/22 02:37:48;;;;;;;11.43;3.30;;;;;;;6.79;83.67;99091.41;5069939;28;20031;-93
2022/11/22 02:40:15;;;;;;;17.30;3.22;;;;;;;6.86;83.92;99102.47;5067113;28;20441;-93
2022/11/22 02:42:47;;;;;;;8.77;2.55;;;;;;;6.83;83.98;99106.09;5068927;28;20047;-92
2022/11/22 02:45:12;;;;;;;9.57;2.53;;;;;;;6.82;83.59;99107.03;5071853;28;20036;-92
2022/11/22 02:47:37;;;;;;;10.40;2.42;;;;;;;6.80;83.68;99114.13;5063908;28;20029;-92
2022/11/22 02:50:03;;;;;;;7.20;2.75;;;;;;;6.82;83.58;99103.56;5081061;28;20052;-92
2022/11/22 02:52:28;;;;;;;11.07;2.58;;;;;;;6.83;83.23;99115.75;5072475;28;20394;-93
2022/11/22 02:54:53;;;;;;;9.80;2.72;;;;;;;6.80;83.28;99113.28;5087345;28;20012;-92
2022/11/22 02:57:19;;;;;;;10.23;2.58;;;;;;;6.78;83.02;99118.63;5068047;28;20474;-92
2022/11/22 02:59:44;;;;;;;11.90;3.58;;;;;;;6.74;83.31;99110.97;5074287;28;20534;-93
2022/11/22 03:02:09;;;;;;;10.48;3.28;;;;;;;6.74;82.76;99108.34;5067027;28;20036;-93
2022/11/22 03:04:35;;;;;;;12.60;2.28;;;;;;;6.75;82.27;99105.63;5071064;28;20538;-92
2022/11/22 03:07:00;;;;;;;14.27;2.45;;;;;;;6.73;82.53;99098.78;5073584;28;20032;-93
2022/11/22 03:09:26;;;;;;;14.52;3.50;;;;;;;6.71;82.92;99114.59;5071622;28;20024;-93
2022/11/22 03:11:53;;;;;;;11.10;2.65;;;;;;;6.70;82.54;99117.31;5087738;28;20105;-91
2022/11/22 03:14:19;;;;;;;15.45;3.47;;;;;;;6.67;82.59;99134.09;5087081;28;20555;-92
2022/11/22 03:16:46;;;;;;;11.02;2.20;;;;;;;6.74;82.19;99132.84;5076072;28;20042;-92
2022/11/22 03:19:12;;;;;;;21.77;3.88;;;;;;;6.66;81.99;99132.38;5087220;28;20505;-92
2022/11/22 03:21:38;;;;;;;14.75;2.97;;;;;;;6.61;82.09;99139.63;5068431;28;20047;-92
2022/11/22 03:24:04;;;;;;;14.27;2.47;;;;;;;6.62;81.97;99142.22;5071916;28;20467;-93
2022/11/22 03:26:30;;;;;;;12.98;2.67;;;;;;;6.55;82.42;99146.06;5067972;28;20028;-92
2022/11/22 03:28:55;;;;;;;14.25;2.80;;;;;;;6.52;82.36;99140.09;5067949;28;20024;-93
2022/11/22 03:31:21;;;;;;;15.90;3.30;;;;;;;6.49;82.17;99140.28;5086705;28;20365;-93
2022/11/22 03:33:46;;;;;;;12.43;2.45;;;;;;;6.44;82.15;99134.41;5071082;28;20052;-91
2022/11/22 03:36:12;;;;;;;8.15;2.63;;;;;;;6.47;82.00;99139.50;5071064;28;20081;-92
2022/11/22 03:38:37;;;;;;;12.77;3.00;;;;;;;6.37;81.98;99137.34;5081904;28;20122;-92
2022/11/22 03:41:03;;;;;;;19.60;2.95;;;;;;;6.41;82.35;99152.94;5072381;28;20035;-92
2022/11/22 03:43:28;;;;;;;7.70;2.20;;;;;;;6.31;82.17;99147.31;5090237;28;20426;-93
2022/11/22 03:45:53;;;;;;;13.02;3.10;;;;;;;6.26;82.15;99138.81;5072272;28;20040;-92
2022/11/22 03:48:19;;;;;;;17.60;3.60;;;;;;;6.21;82.11;99139.03;5070359;28;20119;-91
2022/11/22 03:50:44;;;;;;;15.40;2.70;;;;;;;6.25;82.47;99152.84;5083810;28;20044;-93
2022/11/22 03:53:10;;;;;;;11.18;2.50;;;;;;;6.21;82.29;99157.41;5072226;28;20024;-93
2022/11/22 03:55:36;;;;;;;13.82;2.75;;;;;;;6.16;82.56;99150.69;5068998;28;20035;-93
2022/11/22 03:58:02;;;;;;;13.88;2.75;;;;;;;6.13;82.61;99149.91;5071426;28;20523;-93
2022/11/22 04:00:27;;;;;;;12.18;2.10;;;;;;;5.98;82.31;99139.31;5068601;28;20052;-93
2022/11/22 04:02:52;;;;;;;14.77;2.80;;;;;;;6.00;82.67;99158.44;5085944;28;20028;-94
2022/11/22 04:05:17;;;;;;;9.88;2.30;;;;;;;5.99;82.64;99152.34;5088427;28;20106;-92
2022/11/22 04:07:43;;;;;;;10.40;2.58;;;;;;;5.99;82.87;99165.47;5072206;28;20036;-92
2022/11/22 04:10:08;;;;;;;13.43;2.30;;;;;;;5.97;82.50;99159.47;5072705;28;20059;-92
2022/11/22 04:12:34;;;;;;;7.82;2.00;;;;;;;5.89;82.36;99136.19;5062964;28;20027;-92
2022/11/22 04:15:06;;;;;;;15.77;2.25;;;;;;;5.95;82.68;99158.66;5068564;28;20423;-92
2022/11/22 04:17:46;;;;;;;10.75;2.92;;;;;;;5.83;82.28;99151.38;5085965;28;20031;-93
2022/11/22 04:23:00;;;;;;;14.95;3.08;;;;;;;5.79;82.34;99165.56;5088176;28;20411;-92
2022/11/22 04:25:27;;;;;;;9.57;1.92;;;;;;;5.85;82.46;99175.75;5080305;28;20304;-93
2022/11/22 04:27:53;;;;;;;8.98;2.25;;;;;;;5.84;82.65;99160.94;5063833;28;20028;-92
2022/11/22 04:30:18;;;;;;;10.45;2.45;;;;;;;5.86;82.32;99180.91;5089781;28;20032;-93
2022/11/22 04:32:44;;;;;;;6.95;1.88;;;;;;;5.75;82.70;99182.34;5065790;28;20081;-93
2022/11/22 04:35:09;;;;;;;11.15;2.22;;;;;;;5.67;83.08;99173.97;5058854;28;20028;-92
2022/11/22 04:37:34;;;;;;;10.85;2.50;;;;;;;5.59;83.03;99164.69;5071661;28;20440;-93
2022/11/22 04:40:00;;;;;;;11.38;2.25;;;;;;;5.70;82.75;99171.22;5066812;28;20107;-92
2022/11/22 04:45:09;;;;;;;13.52;2.30;;;;;;;5.70;82.71;99165.97;5088110;28;20043;-94
2022/11/22 04:53:03;;;;;;;11.52;2.08;;;;;;;5.58;82.76;99177.88;5088028;28;20042;-93
2022/11/22 04:55:28;;;;;;;6.30;1.65;;;;;;;5.57;82.62;99171.78;5085125;28;20024;-92
2022/11/22 04:57:53;;;;;;;10.35;2.17;;;;;;;5.62;82.79;99180.28;5088458;28;20478;-92
2022/11/22 05:00:19;;;;;;;12.95;2.53;;;;;;;5.63;82.42;99195.09;5090900;28;20031;-92
2022/11/22 05:02:44;;;;;;;13.40;2.53;;;;;;;5.57;82.67;99169.16;5067652;28;20024;-93
2022/11/22 05:05:09;;;;;;;9.40;2.05;;;;;;;5.55;82.41;99173.66;5071123;28;20051;-93
2022/11/22 05:07:34;;;;;;;10.55;2.17;;;;;;;5.49;82.48;99179.16;5089067;28;20016;-93
2022/11/22 05:10:00;;;;;;;6.53;1.85;;;;;;;5.57;82.52;99192.75;5088488;28;20028;-92
2022/11/22 05:12:25;;;;;;;10.38;1.88;;;;;;;5.49;82.21;99179.16;5068863;28;20020;-93
2022/11/22 05:14:50;;;;;;;7.72;1.75;;;;;;;5.57;81.79;99190.13;5084322;28;20101;-92
2022/11/22 05:17:16;;;;;;;17.67;2.15;;;;;;;5.51;82.16;99189.59;5087152;28;20016;-92
2022/11/22 05:19:41;;;;;;;9.60;1.73;;;;;;;5.65;81.83;99195.03;5068396;28;20060;-93
2022/11/22 05:22:07;;;;;;;8.60;1.98;;;;;;;5.50;81.65;99180.00;5068510;28;20506;-91
2022/11/22 05:24:32;;;;;;;13.57;2.08;;;;;;;5.69;81.38;99193.09;5088248;28;20538;-93
2022/11/22 05:26:57;;;;;;;11.85;1.83;;;;;;;5.59;80.78;99176.94;5088891;28;20119;-93
2022/11/22 05:29:22;;;;;;;12.55;1.63;;;;;;;5.63;80.92;99178.50;5065637;28;20033;-93
2022/11/22 05:31:48;;;;;;;6.45;1.73;;;;;;;5.57;81.11;99166.53;5088052;28;20471;-94
2022/11/22 05:34:13;;;;;;;6.63;2.03;;;;;;;5.64;81.10;99182.81;5087518;28;20036;-91
2022/11/22 05:36:38;;;;;;;7.82;1.70;;;;;;;5.66;81.01;99170.50;5074235;28;20054;-93
2022/11/22 05:39:03;;;;;;;5.72;1.90;;;;;;;5.50;81.19;99178.25;5090915;28;20108;-91
2022/11/22 05:41:29;;;;;;;7.10;1.98;;;;;;;5.59;81.35;99184.81;5071254;28;20025;-92
2022/11/22 05:43:55;;;;;;;9.15;1.83;;;;;;;5.62;80.90;99180.28;5092285;28;20024;-93
2022/11/22 05:46:23;;;;;;;10.27;1.95;;;;;;;5.63;80.72;99183.75;5086939;28;20536;-92
2022/11/22 05:48:48;;;;;;;12.55;1.65;;;;;;;5.55;80.92;99184.13;5070734;28;20468;-93
2022/11/22 05:51:17;;;;;;;17.70;2.70;;;;;;;5.53;81.02;99175.47;5075411;28;20032;-93
2022/11/22 05:53:43;;;;;;;14.20;2.28;;;;;;;5.56;80.77;99184.97;5075229;28;20093;-92
2022/11/22 05:56:10;;;;;;;7.63;1.77;;;;;;;5.56;81.00;99193.69;5073654;28;20032;-93
2022/11/22 05:58:36;;;;;;;5.47;1.50;;;;;;;5.64;80.46;99193.31;5068349;28;20521;-91
2022/11/22 06:01:12;;;;;;;17.27;2.53;;;;;;;5.50;80.85;99193.97;5072891;28;20027;-92
2022/11/22 06:03:38;;;;;;;8.65;1.85;;;;;;;5.31;81.31;99175.59;5081937;28;20032;-92
2022/11/22 06:06:05;;;;;;;9.07;2.03;;;;;;;5.38;81.37;99177.03;5071983;28;20035;-92
2022/11/22 06:08:31;;;;;;;13.07;2.42;;;;;;;5.56;80.44;99193.69;5092097;28;20073;-92
2022/11/22 06:11:05;;;;;;;8.88;2.25;;;;;;;5.54;80.77;99186.81;5074002;28;20035;-93
2022/11/22 06:13:35;;;;;;;10.02;2.10;;;;;;;5.50;80.59;99193.97;5073717;28;20528;-93
2022/11/22 06:16:01;;;;;;;8.80;1.90;;;;;;;5.49;80.27;99188.78;5090720;28;20505;-93
2022/11/22 06:18:26;;;;;;;6.88;1.70;;;;;;;5.43;80.47;99189.91;5091470;28;20024;-93
2022/11/22 06:20:56;;;;;;;8.38;1.70;;;;;;;5.42;80.72;99198.72;5091857;28;20503;-93
2022/11/22 06:23:21;;;;;;;8.40;1.70;;;;;;;5.39;80.47;99190.97;5083186;28;20039;-92
2022/11/22 06:26:05;;;;;;;6.90;2.10;;;;;;;5.35;80.85;99186.78;5089154;28;20043;-93
2022/11/22 06:28:33;;;;;;;9.43;2.13;;;;;;;5.40;80.59;99202.31;5072183;28;20035;-92
2022/11/22 06:31:22;;;;;;;14.40;2.63;;;;;;;5.40;80.61;99197.91;5089869;28;20055;-94
2022/11/22 06:33:47;;;;;;;10.57;2.15;;;;;;;5.29;81.02;99198.41;5084780;28;20059;-93
2022/11/22 06:36:18;;;;;;;9.25;1.67;;;;;;;5.25;81.09;99190.75;5072118;28;20483;-92
2022/11/22 06:38:44;;;;;;;8.60;1.98;;;;;;;5.29;80.67;99192.31;5091871;28;20068;-93
2022/11/22 06:41:15;;;;;;;9.32;2.58;;;;;;;5.32;80.74;99192.19;5066445;28;20031;-93
2022/11/22 06:43:42;;;;;;;6.93;1.88;;;;;;;5.20;80.89;99197.97;5088992;28;20490;-91
2022/11/22 06:46:09;;;;;;;7.32;2.20;;;;;;;5.15;81.12;99192.09;5072347;28;20028;-92
2022/11/22 06:48:36;;;;;;;8.05;1.80;;;;;;;5.14;81.24;99213.97;5074191;28;20031;-91
2022/11/22 06:51:04;;;;;;;8.30;2.08;;;;;;;5.08;81.24;99204.59;5074694;28;20032;-92
2022/11/22 06:53:32;;;;;;;6.00;2.13;;;;;;;5.04;81.27;99206.50;5074487;28;20494;-92
2022/11/22 06:56:01;;;;;;;4.95;1.95;;;;;;;5.01;81.40;99197.94;5070318;28;20048;-92
2022/11/22 06:58:26;;;;;;;8.60;2.28;;;;;;;5.16;81.21;99226.06;5087878;28;20089;-92
2022/11/22 07:00:51;;;;;;;10.82;3.15;;;;;;;5.13;81.28;99210.50;5085249;28;21268;-93
2022/11/22 07:03:17;;;;;;;12.27;2.63;;;;;;;5.13;81.85;99218.34;5088873;28;20477;-93
2022/11/22 07:05:49;;;;;;;8.32;2.22;;;;;;;5.25;81.36;99222.19;5091319;28;20032;-92
2022/11/22 07:08:15;;;;;;;14.52;2.35;;;;;;;5.28;81.01;99225.53;5073195;28;20263;-92
2022/11/22 07:10:40;;;;;;;8.68;1.85;;;;;;;5.39;80.81;99240.75;5070413;28;20055;-92
2022/11/22 07:13:05;;;;;;;9.82;2.20;;;;;;;5.32;81.28;99245.44;5067952;28;20123;-92
2022/11/22 07:15:30;;;;;;;6.70;1.58;;;;;;;5.47;80.81;99236.03;5071050;28;20412;-92
2022/11/22 07:17:56;;;;;;;10.23;1.95;;;;;;;5.51;80.47;99245.47;5075800;28;20031;-92
2022/11/22 07:20:21;;;;;;;10.18;2.20;;;;;;;5.61;80.36;99243.28;5074522;28;20019;-93
2022/11/22 07:22:46;;;;;;;6.03;1.73;;;;;;;5.70;80.36;99245.50;5071726;28;20055;-92
2022/11/22 07:25:12;;;;;;;9.18;2.00;;;;;;;5.69;80.25;99240.28;5090419;28;20027;-91
2022/11/22 07:27:37;;;;;;;8.20;1.92;;;;;;;5.70;80.19;99240.25;5088202;28;20039;-92
2022/11/22 07:30:03;;;;;;;10.35;2.20;;;;;;;5.76;79.95;99246.97;5070669;28;20024;-91
2022/11/22 07:32:28;;;;;;;6.53;1.98;;;;;;;5.70;80.09;99244.63;5089229;28;20032;-92
2022/11/22 07:34:53;;;;;;;10.75;2.15;;;;;;;5.68;79.79;99241.22;5072376;28;20479;-92
2022/11/22 07:37:18;;;;;;;9.43;2.13;;;;;;;5.75;79.81;99235.63;5081808;28;20094;-93
2022/11/22 07:39:44;;;;;;;6.43;1.65;;;;;;;5.80;79.66;99248.53;5083339;28;20016;-91
2022/11/22 07:42:09;;;;;;;11.30;2.58;;;;;;;5.84;79.64;99244.84;5074988;28;20028;-92
2022/11/22 07:44:34;;;;;;;6.20;1.70;;;;;;;5.78;79.62;99234.63;5087105;28;20040;-93
2022/11/22 07:46:59;;;;;;;13.20;3.03;;;;;;;5.91;79.19;99248.88;5085077;28;20036;-93
2022/11/22 07:49:25;;;;;;;5.75;2.10;;;;;;;5.89;79.11;99251.56;5063958;28;20171;-91
2022/11/22 07:51:51;;;;;;;7.97;1.90;;;;;;;5.89;79.24;99243.72;5063353;28;20067;-91
2022/11/22 07:54:17;;;;;;;10.90;1.98;;;;;;;5.93;79.80;99241.84;5065030;28;20395;-91
2022/11/22 07:56:42;;;;;;;7.85;1.95;;;;;;;5.94;78.95;99240.06;5069204;28;20029;-92
2022/11/22 07:59:07;;;;;;;9.63;1.88;;;;;;;6.02;79.09;99249.28;5066260;28;20020;-91
2022/11/22 08:01:32;;;;;;;7.15;1.70;;;;;;;6.07;78.85;99244.66;5067477;28;20027;-91
2022/11/22 08:03:58;;;;;;;7.47;1.70;;;;;;;6.18;79.37;99238.03;5066871;28;20528;-91
2022/11/22 08:06:23;;;;;;;6.90;1.70;;;;;;;6.31;79.08;99257.53;5068131;28;20036;-92
2022/11/22 08:08:48;;;;;;;8.25;2.17;;;;;;;6.26;79.15;99239.38;5071323;28;20020;-91
2022/11/22 08:11:13;;;;;;;10.27;2.17;;;;;;;6.26;77.97;99249.03;5066918;28;20049;-92
2022/11/22 08:13:39;;;;;;;8.68;1.90;;;;;;;6.22;78.62;99229.94;5061059;28;20039;-91
2022/11/22 08:16:08;;;;;;;6.38;1.55;;;;;;;6.28;77.74;99257.66;5063062;28;20111;-91
2022/11/22 08:18:34;;;;;;;8.23;1.95;;;;;;;6.34;78.00;99254.75;5066545;28;20440;-91
2022/11/22 08:21:08;;;;;;;8.23;2.20;;;;;;;6.38;78.03;99261.53;5069265;28;20063;-91
2022/11/22 08:23:34;;;;;;;4.82;1.63;;;;;;;6.46;78.28;99262.03;5061438;28;20387;-92
2022/11/22 08:25:59;;;;;;;11.02;2.20;;;;;;;6.44;78.31;99255.16;5061391;28;20089;-91
2022/11/22 08:28:25;;;;;;;7.00;2.15;;;;;;;6.44;77.67;99256.03;5064555;28;20037;-91
2022/11/22 08:30:51;;;;;;;7.35;2.03;;;;;;;6.43;77.94;99242.94;5061538;28;20032;-91
2022/11/22 08:33:16;;;;;;;7.80;2.25;;;;;;;6.41;77.61;99245.66;5062104;28;20393;-90
2022/11/22 08:35:42;;;;;;;8.98;1.60;;;;;;;6.49;77.19;99254.00;5065597;28;20051;-91
2022/11/22 08:38:07;;;;;;;5.18;1.45;;;;;;;6.52;77.59;99259.09;5067173;28;20040;-91
2022/11/22 08:40:33;;;;;;;7.38;2.38;;;;;;;6.59;77.58;99260.50;5057841;28;20017;-92
2022/11/22 08:42:58;;;;;;;7.80;1.95;;;;;;;6.55;77.91;99261.59;5067406;28;20032;-91
2022/11/22 08:45:23;;;;;;;6.60;1.85;;;;;;;6.65;78.68;99272.47;5062033;28;20104;-90
2022/11/22 08:47:49;;;;;;;8.32;1.67;;;;;;;6.65;77.60;99270.69;5062334;28;20035;-90
2022/11/22 08:50:16;;;;;;;9.15;2.47;;;;;;;6.57;77.53;99264.97;5077798;28;20130;-91
2022/11/22 08:52:41;;;;;;;7.38;1.77;;;;;;;6.66;77.97;99266.28;5086806;28;20040;-92
2022/11/22 08:55:07;;;;;;;7.30;1.90;;;;;;;6.68;77.50;99266.25;5064781;28;20593;-90
2022/11/22 08:57:32;;;;;;;6.43;1.77;;;;;;;6.76;77.15;99259.69;5057864;28;20036;-92
2022/11/22 08:59:58;;;;;;;4.00;1.70;;;;;;;6.76;77.05;99264.94;5085680;28;20055;-91
2022/11/22 09:02:23;;;;;;;8.32;1.60;;;;;;;6.89;76.84;99276.50;5068739;28;20032;-92
2022/11/22 09:04:48;;;;;;;10.23;1.80;;;;;;;6.86;77.19;99271.44;5074572;28;20024;-91
2022/11/22 09:07:13;;;;;;;11.48;2.08;;;;;;;6.85;77.22;99266.22;5068796;28;20050;-92
2022/11/22 09:09:39;;;;;;;7.82;1.65;;;;;;;6.98;76.76;99274.34;5064961;28;20036;-92
2022/11/22 09:12:04;;;;;;;13.68;2.53;;;;;;;6.92;76.55;99267.63;5087481;28;20030;-92
2022/11/22 09:14:30;;;;;;;7.22;1.75;;;;;;;7.05;76.28;99273.13;5087542;28;20031;-93
2022/11/22 09:16:55;;;;;;;5.00;1.92;;;;;;;7.04;76.56;99267.03;5084732;28;20102;-92
2022/11/22 09:19:20;;;;;;;8.25;2.03;;;;;;;7.01;77.02;99272.44;5067583;28;20043;-93
2022/11/22 09:21:45;;;;;;;6.72;2.22;;;;;;;7.07;76.38;99285.25;5072825;28;20020;-92
2022/11/22 09:24:11;;;;;;;5.38;1.95;;;;;;;7.12;76.19;99285.84;5087603;28;20034;-91
2022/11/22 09:26:36;;;;;;;7.70;2.10;;;;;;;7.14;76.27;99268.25;5061318;28;20031;-90
2022/11/22 09:29:01;;;;;;;9.45;2.00;;;;;;;7.66;75.65;99281.31;5064546;28;20032;-90
2022/11/22 09:31:27;;;;;;;5.78;1.77;;;;;;;8.12;72.95;99277.97;5088301;28;20031;-90
2022/11/22 09:33:52;;;;;;;7.32;2.10;;;;;;;8.00;73.50;99270.72;5084337;28;20044;-92
2022/11/22 09:36:20;;;;;;;4.45;1.38;;;;;;;7.63;73.38;99281.44;5088106;28;20539;-91
2022/11/22 09:38:46;;;;;;;6.50;1.58;;;;;;;7.74;73.48;99275.63;5082653;28;20499;-92
2022/11/22 09:41:14;;;;;;;3.75;1.67;;;;;;;7.94;74.17;99290.34;5088323;28;20020;-90
2022/11/22 09:44:12;;;;;;;3.20;1.63;;;;;;;7.96;73.70;99285.84;5068061;28;20042;-90
2022/11/22 09:46:51;;;;;;;4.75;1.50;;;;;;;7.95;73.65;99283.28;5084403;28;20020;-91
2022/11/22 09:49:42;;;;;;;8.20;2.00;;;;;;;7.88;73.91;99283.63;5069950;28;20047;-90
2022/11/22 09:52:30;;;;;;;2.58;1.45;;;;;;;7.75;74.03;99276.50;5089273;28;20497;-92
2022/11/22 09:55:02;;;;;;;13.85;2.97;;;;;;;7.91;72.95;99282.59;5089265;28;20523;-91
2022/11/22 09:57:38;;;;;;;8.95;2.33;;;;;;;7.85;73.32;99277.69;5064844;28;20028;-91
2022/11/22 10:00:15;;;;;;;5.13;1.35;;;;;;;7.93;73.49;99283.38;5065128;28;20425;-91
2022/11/22 10:02:46;;;;;;;3.85;1.45;;;;;;;7.61;74.55;99274.59;5066019;28;20047;-91
2022/11/22 10:05:17;;;;;;;3.40;1.23;;;;;;;7.68;74.11;99270.69;5063433;28;20125;-92
2022/11/22 10:07:51;;;;;;;3.70;1.50;;;;;;;7.79;74.54;99294.66;5052051;28;20055;-92
2022/11/22 10:10:23;;;;;;;8.57;1.90;;;;;;;7.72;73.99;99266.13;5080996;28;20020;-92
2022/11/22 10:13:01;;;;;;;3.95;1.50;;;;;;;7.73;74.42;99288.84;5081918;28;20416;-91
2022/11/22 10:16:23;;;;;;;5.20;1.60;;;;;;;7.84;74.29;99287.38;5057765;28;20032;-92
2022/11/22 10:19:08;;;;;;;4.53;2.03;;;;;;;7.74;74.60;99287.91;5030387;28;20130;-91
2022/11/22 10:21:33;;;;;;;6.07;1.48;;;;;;;7.60;74.78;99279.00;5069184;28;20508;-91
2022/11/22 10:23:58;;;;;;;2.92;1.48;;;;;;;7.63;75.92;99284.09;5068351;28;20067;-92
2022/11/22 10:26:28;;;;;;;5.28;1.45;;;;;;;7.63;75.38;99278.81;5072323;28;20032;-91
2022/11/22 10:29:22;;;;;;;4.18;1.42;;;;;;;7.64;76.46;99284.94;5071147;28;20024;-92
2022/11/22 10:32:06;;;;;;;3.17;1.52;;;;;;;7.63;75.56;99268.28;5066336;28;20135;-92
2022/11/22 10:35:02;;;;;;;7.93;1.50;;;;;;;7.63;74.95;99273.56;5090486;28;20634;-91
2022/11/22 10:37:43;;;;;;;5.28;1.95;;;;;;;7.68;75.58;99268.91;5086557;28;20043;-91
2022/11/22 10:40:41;;;;;;;9.02;2.03;;;;;;;7.71;75.63;99277.56;5067450;28;20020;-91
2022/11/22 10:43:25;;;;;;;5.10;1.17;;;;;;;7.65;75.91;99269.09;5088544;28;20291;-93
2022/11/22 10:46:13;;;;;;;3.75;1.40;;;;;;;7.65;75.89;99269.09;5089112;28;20024;-91
2022/11/22 10:48:43;;;;;;;4.50;1.23;;;;;;;7.79;74.86;99268.34;5065316;28;20071;-91
2022/11/22 10:51:12;;;;;;;5.47;1.35;;;;;;;7.81;75.01;99270.88;5087476;28;20511;-91
2022/11/22 10:54:11;;;;;;;1.60;1.10;;;;;;;7.75;75.20;99253.66;5065600;28;20115;-91
2022/11/22 10:57:00;;;;;;;3.33;1.83;;;;;;;7.80;75.36;99258.66;5068502;28;20097;-91
2022/11/22 10:59:34;;;;;;;2.50;1.20;;;;;;;8.01;74.97;99262.75;5087535;28;20371;-91
2022/11/22 11:02:26;;;;;;;3.67;1.48;;;;;;;8.14;75.07;99258.50;5051699;28;20383;-90
2022/11/22 11:04:53;;;;;;;3.22;1.33;;;;;;;8.16;74.38;99245.28;5064999;28;20089;-90
2022/11/22 11:07:22;;;;;;;4.07;1.23;;;;;;;8.14;73.58;99249.75;5090608;28;20035;-91
2022/11/22 11:09:57;;;;;;;3.42;1.33;;;;;;;8.10;73.71;99249.06;5086681;28;20108;-91
2022/11/22 11:12:51;;;;;;;1.60;1.00;;;;;;;8.14;73.82;99240.09;5066959;28;20061;-91
2022/11/22 11:15:23;;;;;;;2.80;1.15;;;;;;;8.03;73.49;99239.84;5066599;28;20028;-91
2022/11/22 11:17:57;;;;;;;4.97;1.40;;;;;;;8.06;73.73;99233.53;5091430;28;20478;-91
2022/11/22 11:20:35;;;;;;;1.55;1.00;;;;;;;8.19;73.13;99240.66;5084521;28;20023;-91
2022/11/22 11:23:00;;;;;;;2.65;1.00;;;;;;;8.15;72.77;99223.34;5090233;28;20032;-90
2022/11/22 11:25:41;;;;;;;2.17;1.10;;;;;;;8.15;72.87;99233.88;5067242;28;20073;-90
2022/11/22 11:28:10;;;;;;;4.22;1.25;;;;;;;8.16;73.33;99227.69;5070206;28;20032;-91
2022/11/22 11:30:44;;;;;;;2.40;1.25;;;;;;;8.12;72.39;99234.06;5085449;28;20384;-91
2022/11/22 11:33:28;;;;;;;1.40;1.10;;;;;;;8.25;73.17;99228.09;5059837;28;20020;-91
2022/11/22 11:36:22;;;;;;;2.88;1.35;;;;;;;8.33;72.91;99228.50;5067390;28;20032;-91
2022/11/22 11:38:56;;;;;;;2.58;0.90;;;;;;;8.26;72.46;99208.75;5079844;28;20516;-91
2022/11/22 11:41:30;;;;;;;2.42;1.10;;;;;;;8.28;72.68;99204.25;5068172;28;20020;-91
2022/11/22 11:44:00;;;;;;;1.60;0.90;;;;;;;8.34;72.53;99212.63;5070707;28;20571;-91
2022/11/22 11:46:26;;;;;;;1.77;0.80;;;;;;;8.38;71.64;99213.34;5087849;28;20054;-91
2022/11/22 11:49:13;;;;;;;2.20;1.30;;;;;;;8.27;71.40;99202.53;5089598;28;20023;-91
2022/11/22 11:51:41;;;;;;;2.35;1.10;;;;;;;8.35;71.96;99213.50;5077527;28;20127;-91
2022/11/22 11:54:12;;;;;;;2.67;0.75;;;;;;;8.37;72.60;99215.13;5068549;28;20491;-90
2022/11/22 11:56:45;;;;;;;1.00;0.73;;;;;;;8.52;71.78;99221.28;5070003;28;21311;-91